Prestwick, United Kingdom
Current Conditions -  °F | °C
As of 10:20 AM on Thursday 27 Nov 2014 (Local Time) from EGPK Reporting Station
Few Clouds Few Clouds  
Wind Chill: 44°   Ceiling: Unl
Heat Index: 46°   Visibility: 6mi
Dew Point: 41°   Wind: 5mph
Humidity: 81%   Direction: 90°E
Pressure: 29.62"   Gusts: NA
Location:  55.48°N, 4.62°W
Report Text: EGPK 271020Z 09004KT 9999 FEW035 08/05 Q1003
Loading
Personal Weather Stations






























Interactive Weather Map New forecast layout! Learn more

10-Day Weather Forecast

Advertisements
Track Severe Weather on mobile